PWSweather.com
Personal Weather Stations
Station Observations
KWIATHEL1
Marinette County, Athelstane, WI 54104

Marinette CountyAthelstane, WI 54104

Lat: 45.4, Lon: -88.12

Elevation: 960

Station Type: OS WM-918

http://weather.athelstanewi.com

Latest ConditionsUpdated 9:45:33 PM CDT Saturday, May 23, 2015
Currently Today's Max Today's Min Today's Average
Temperature 62.2°F16.8°C 81.1°F27.3°C 31.1°F-0.5°C 60.3°F15.7°C
Dew Point 36.3°F2.4°C 44.1°F6.7°C 19.4°F-7.0°C 34.3°F1.3°C
Winds Calm Calm 13.8 mph WSW22.2 kmh WSW - 3.1 mph 5.0 kmh
Wind Gusts -- 15.8 mph25.4 kmh - -
Humidity 38% 77% 25% 42%
Pressure 30.13 in1020.3 mb 30.25 in1024.4 mb 30.10 in1019.3 mb -
Hour Temp Dew Point Humidity Winds Wind Gusts Pressure Precip Precip Rate Daily Precip Total
09:45 PM 62.2°F16.8°C 36.3°F2.4°C 38% Calm Calm -- 30.13 in1020.3 mb 0.00 in0.0 mm 0.00 in0.0 mm 0.00 in0.0 mm
09:30 PM 62.6°F17.0°C 35.3°F1.8°C 36% Calm Calm -- 30.13 in1020.3 mb 0.00 in0.0 mm 0.00 in0.0 mm 0.00 in0.0 mm
09:15 PM 63.1°F17.3°C 35.1°F1.7°C 35% Calm Calm -- 30.13 in1020.3 mb 0.00 in0.0 mm 0.00 in0.0 mm 0.00 in0.0 mm
09:00 PM 63.9°F17.7°C 33.5°F0.8°C 32% Calm Calm -- 30.13 in1020.3 mb 0.00 in0.0 mm 0.00 in0.0 mm 0.00 in0.0 mm
08:45 PM 64.6°F18.1°C 33.3°F0.7°C 31% Calm Calm -- 30.13 in1020.3 mb 0.00 in0.0 mm 0.00 in0.0 mm 0.00 in0.0 mm
08:30 PM 65.7°F18.7°C 33.4°F0.8°C 30% Calm Calm -- 30.13 in1020.3 mb 0.00 in0.0 mm 0.00 in0.0 mm 0.00 in0.0 mm
08:15 PM 67.8°F19.9°C 34.4°F1.3°C 29% Calm Calm -- 30.13 in1020.3 mb 0.00 in0.0 mm 0.00 in0.0 mm 0.00 in0.0 mm
08:00 PM 70.2°F21.2°C 35.6°F2.0°C 28% Calm Calm -- 30.13 in1020.3 mb 0.00 in0.0 mm 0.00 in0.0 mm 0.00 in0.0 mm
07:45 PM 72.1°F22.3°C 37.3°F2.9°C 28% Calm Calm -- 30.10 in1019.3 mb 0.00 in0.0 mm 0.00 in0.0 mm 0.00 in0.0 mm
07:30 PM 73.8°F23.2°C 37.7°F3.2°C 27% 6.0 mph WSW9.7 kmh WSW 6.7 mph10.8 kmh 30.13 in1020.3 mb 0.00 in0.0 mm 0.00 in0.0 mm 0.00 in0.0 mm
07:15 PM 75.2°F24.0°C 39.0°F3.9°C 27% 8.1 mph WNW13.0 kmh WNW 8.1 mph13.0 kmh 30.10 in1019.3 mb 0.00 in0.0 mm 0.00 in0.0 mm 0.00 in0.0 mm
07:00 PM 76.5°F24.7°C 39.1°F3.9°C 26% 4.0 mph WNW6.4 kmh WNW 11.1 mph17.9 kmh 30.10 in1019.3 mb 0.00 in0.0 mm 0.00 in0.0 mm 0.00 in0.0 mm
06:45 PM 76.8°F24.9°C 39.4°F4.1°C 26% 4.0 mph NW6.4 kmh NW 7.4 mph11.9 kmh 30.10 in1019.3 mb 0.00 in0.0 mm 0.00 in0.0 mm 0.00 in0.0 mm
06:30 PM 75.7°F24.3°C 39.4°F4.1°C 27% Calm Calm 6.0 mph9.7 kmh 30.13 in1020.3 mb 0.00 in0.0 mm 0.00 in0.0 mm 0.00 in0.0 mm
06:15 PM 76.1°F24.5°C 38.8°F3.8°C 26% 7.4 mph W11.9 kmh W 11.7 mph18.8 kmh 30.13 in1020.3 mb 0.00 in0.0 mm 0.00 in0.0 mm 0.00 in0.0 mm
06:00 PM 77.0°F25.0°C 39.5°F4.2°C 26% Calm Calm 6.0 mph9.7 kmh 30.13 in1020.3 mb 0.00 in0.0 mm 0.00 in0.0 mm 0.00 in0.0 mm
05:45 PM 78.4°F25.8°C 39.7°F4.3°C 25% 4.7 mph WSW7.6 kmh WSW 5.4 mph8.7 kmh 30.10 in1019.3 mb 0.00 in0.0 mm 0.00 in0.0 mm 0.00 in0.0 mm
05:30 PM 79.7°F26.5°C 40.8°F4.9°C 25% 4.0 mph S6.4 kmh S 9.4 mph15.1 kmh 30.13 in1020.3 mb 0.00 in0.0 mm 0.00 in0.0 mm 0.00 in0.0 mm
05:15 PM 80.2°F26.8°C 41.3°F5.2°C 25% 11.7 mph WSW18.8 kmh WSW 11.7 mph18.8 kmh 30.13 in1020.3 mb 0.00 in0.0 mm 0.00 in0.0 mm 0.00 in0.0 mm
05:01 PM 81.1°F27.3°C 42.0°F5.6°C 25% 10.4 mph WSW16.7 kmh WSW 14.4 mph23.2 kmh 30.13 in1020.3 mb 0.00 in0.0 mm 0.00 in0.0 mm 0.00 in0.0 mm
04:45 PM 80.8°F27.1°C 41.7°F5.4°C 25% 6.0 mph NNW9.7 kmh NNW 8.1 mph13.0 kmh 30.13 in1020.3 mb 0.00 in0.0 mm 0.00 in0.0 mm 0.00 in0.0 mm
04:30 PM 80.8°F27.1°C 41.7°F5.4°C 25% 13.8 mph WSW22.2 kmh WSW 13.8 mph22.2 kmh 30.13 in1020.3 mb 0.00 in0.0 mm 0.00 in0.0 mm 0.00 in0.0 mm
04:15 PM 79.9°F26.6°C 41.0°F5.0°C 25% 4.7 mph WSW7.6 kmh WSW 15.8 mph25.4 kmh 30.13 in1020.3 mb 0.00 in0.0 mm 0.00 in0.0 mm 0.00 in0.0 mm
04:00 PM 80.1°F26.7°C 41.1°F5.1°C 25% 6.0 mph WSW9.7 kmh WSW 6.0 mph9.7 kmh 30.13 in1020.3 mb 0.00 in0.0 mm 0.00 in0.0 mm 0.00 in0.0 mm
03:45 PM 81.0°F27.2°C 41.9°F5.5°C 25% Calm Calm 5.4 mph8.7 kmh 30.13 in1020.3 mb 0.00 in0.0 mm 0.00 in0.0 mm 0.00 in0.0 mm
03:30 PM 80.4°F26.9°C 41.4°F5.2°C 25% 7.4 mph SSE11.9 kmh SSE 10.4 mph16.7 kmh 30.16 in1021.3 mb 0.00 in0.0 mm 0.00 in0.0 mm 0.00 in0.0 mm
03:15 PM 80.4°F26.9°C 41.4°F5.2°C 25% 11.7 mph W18.8 kmh W 14.4 mph23.2 kmh 30.16 in1021.3 mb 0.00 in0.0 mm 0.00 in0.0 mm 0.00 in0.0 mm
03:00 PM 79.5°F26.4°C 40.7°F4.8°C 25% 4.7 mph SSE7.6 kmh SSE 8.7 mph14.0 kmh 30.16 in1021.3 mb 0.00 in0.0 mm 0.00 in0.0 mm 0.00 in0.0 mm
02:45 PM 79.7°F26.5°C 40.8°F4.9°C 25% 6.7 mph SE10.8 kmh SE 10.1 mph16.3 kmh 30.16 in1021.3 mb 0.00 in0.0 mm 0.00 in0.0 mm 0.00 in0.0 mm
02:30 PM 80.6°F27.0°C 41.6°F5.3°C 25% 5.4 mph SW8.7 kmh SW 11.1 mph17.9 kmh 30.16 in1021.3 mb 0.00 in0.0 mm 0.00 in0.0 mm 0.00 in0.0 mm
02:15 PM 80.1°F26.7°C 41.1°F5.1°C 25% Calm Calm 6.7 mph10.8 kmh 30.16 in1021.3 mb 0.00 in0.0 mm 0.00 in0.0 mm 0.00 in0.0 mm
02:00 PM 79.2°F26.2°C 41.4°F5.2°C 26% 7.4 mph WSW11.9 kmh WSW 8.1 mph13.0 kmh 30.16 in1021.3 mb 0.00 in0.0 mm 0.00 in0.0 mm 0.00 in0.0 mm
01:45 PM 79.7°F26.5°C 41.8°F5.4°C 26% 7.4 mph SSE11.9 kmh SSE 15.8 mph25.4 kmh 30.19 in1022.4 mb 0.00 in0.0 mm 0.00 in0.0 mm 0.00 in0.0 mm
01:30 PM 78.3°F25.7°C 40.6°F4.8°C 26% 6.7 mph WSW10.8 kmh WSW 8.7 mph14.0 kmh 30.19 in1022.4 mb 0.00 in0.0 mm 0.00 in0.0 mm 0.00 in0.0 mm
01:15 PM 78.8°F26.0°C 41.1°F5.1°C 26% 7.4 mph W11.9 kmh W 15.1 mph24.3 kmh 30.19 in1022.4 mb 0.00 in0.0 mm 0.00 in0.0 mm 0.00 in0.0 mm
01:00 PM 77.4°F25.2°C 39.8°F4.3°C 26% 4.0 mph S6.4 kmh S 7.4 mph11.9 kmh 30.19 in1022.4 mb 0.00 in0.0 mm 0.00 in0.0 mm 0.00 in0.0 mm
12:45 PM 77.2°F25.1°C 39.7°F4.3°C 26% Calm Calm -- 30.19 in1022.4 mb 0.00 in0.0 mm 0.00 in0.0 mm 0.00 in0.0 mm
12:30 PM 76.8°F24.9°C 41.3°F5.2°C 28% 9.4 mph S15.1 kmh S 11.1 mph17.9 kmh 30.19 in1022.4 mb 0.00 in0.0 mm 0.00 in0.0 mm 0.00 in0.0 mm
12:15 PM 76.1°F24.5°C 39.7°F4.3°C 27% 4.0 mph WSW6.4 kmh WSW 8.1 mph13.0 kmh 30.19 in1022.4 mb 0.00 in0.0 mm 0.00 in0.0 mm 0.00 in0.0 mm
12:00 PM 75.7°F24.3°C 39.4°F4.1°C 27% 11.1 mph WSW17.9 kmh WSW 15.1 mph24.3 kmh 30.19 in1022.4 mb 0.00 in0.0 mm 0.00 in0.0 mm 0.00 in0.0 mm
11:45 AM 75.4°F24.1°C 41.8°F5.4°C 30% 4.7 mph SSW7.6 kmh SSW 8.1 mph13.0 kmh 30.19 in1022.4 mb 0.00 in0.0 mm 0.00 in0.0 mm 0.00 in0.0 mm
11:30 AM 75.7°F24.3°C 41.3°F5.2°C 29% Calm Calm 10.4 mph16.7 kmh 30.22 in1023.4 mb 0.00 in0.0 mm 0.00 in0.0 mm 0.00 in0.0 mm
11:15 AM 74.7°F23.7°C 42.1°F5.6°C 31% 6.7 mph SW10.8 kmh SW 9.4 mph15.1 kmh 30.22 in1023.4 mb 0.00 in0.0 mm 0.00 in0.0 mm 0.00 in0.0 mm
11:01 AM 74.3°F23.5°C 41.7°F5.4°C 31% 8.1 mph NW13.0 kmh NW 8.1 mph13.0 kmh 30.22 in1023.4 mb 0.00 in0.0 mm 0.00 in0.0 mm 0.00 in0.0 mm
10:45 AM 73.4°F23.0°C 41.8°F5.4°C 32% 7.4 mph NW11.9 kmh NW 13.1 mph21.1 kmh 30.22 in1023.4 mb 0.00 in0.0 mm 0.00 in0.0 mm 0.00 in0.0 mm
10:30 AM 73.2°F22.9°C 43.2°F6.2°C 34% Calm Calm 7.4 mph11.9 kmh 30.22 in1023.4 mb 0.00 in0.0 mm 0.00 in0.0 mm 0.00 in0.0 mm
10:15 AM 73.0°F22.8°C 43.0°F6.1°C 34% 4.0 mph WSW6.4 kmh WSW 10.1 mph16.3 kmh 30.22 in1023.4 mb 0.00 in0.0 mm 0.00 in0.0 mm 0.00 in0.0 mm
10:00 AM 71.8°F22.1°C 44.1°F6.7°C 37% 4.0 mph WSW6.4 kmh WSW 4.0 mph6.4 kmh 30.22 in1023.4 mb 0.00 in0.0 mm 0.00 in0.0 mm 0.00 in0.0 mm
09:45 AM 70.9°F21.6°C 43.3°F6.3°C 37% 4.0 mph SW6.4 kmh SW 5.4 mph8.7 kmh 30.22 in1023.4 mb 0.00 in0.0 mm 0.00 in0.0 mm 0.00 in0.0 mm
09:30 AM 69.1°F20.6°C 41.7°F5.4°C 37% 7.4 mph W11.9 kmh W 8.1 mph13.0 kmh 30.22 in1023.4 mb 0.00 in0.0 mm 0.00 in0.0 mm 0.00 in0.0 mm
08:45 AM 64.8°F18.2°C 41.2°F5.1°C 42% 8.7 mph WSW14.0 kmh WSW 8.7 mph14.0 kmh 30.25 in1024.4 mb 0.00 in0.0 mm 0.00 in0.0 mm 0.00 in0.0 mm
08:30 AM 63.1°F17.3°C 43.7°F6.5°C 49% 4.0 mph SW6.4 kmh SW 4.0 mph6.4 kmh 30.25 in1024.4 mb 0.00 in0.0 mm 0.00 in0.0 mm 0.00 in0.0 mm
08:15 AM 59.5°F15.3°C 42.4°F5.8°C 53% Calm Calm -- 30.25 in1024.4 mb 0.00 in0.0 mm 0.00 in0.0 mm 0.00 in0.0 mm
08:00 AM 56.3°F13.5°C 39.9°F4.4°C 54% 7.4 mph WSW11.9 kmh WSW 7.4 mph11.9 kmh 30.25 in1024.4 mb 0.00 in0.0 mm 0.00 in0.0 mm 0.00 in0.0 mm
07:45 AM 53.4°F11.9°C 38.6°F3.7°C 57% 5.4 mph WSW8.7 kmh WSW 7.4 mph11.9 kmh 30.25 in1024.4 mb 0.00 in0.0 mm 0.00 in0.0 mm 0.00 in0.0 mm
07:30 AM 50.7°F10.4°C 37.4°F3.0°C 60% Calm Calm 5.4 mph8.7 kmh 30.25 in1024.4 mb 0.00 in0.0 mm 0.00 in0.0 mm 0.00 in0.0 mm
07:15 AM 48.7°F9.3°C 36.7°F2.6°C 63% 7.4 mph WNW11.9 kmh WNW 8.7 mph14.0 kmh 30.25 in1024.4 mb 0.00 in0.0 mm 0.00 in0.0 mm 0.00 in0.0 mm
07:00 AM 47.3°F8.5°C 36.5°F2.5°C 66% Calm Calm 8.1 mph13.0 kmh 30.25 in1024.4 mb 0.00 in0.0 mm 0.00 in0.0 mm 0.00 in0.0 mm
06:45 AM 45.9°F7.7°C 35.9°F2.2°C 68% Calm Calm -- 30.25 in1024.4 mb 0.00 in0.0 mm 0.00 in0.0 mm 0.00 in0.0 mm
06:30 AM 44.2°F6.8°C 35.5°F1.9°C 71% Calm Calm 6.7 mph10.8 kmh 30.25 in1024.4 mb 0.00 in0.0 mm 0.00 in0.0 mm 0.00 in0.0 mm
06:15 AM 42.4°F5.8°C 34.4°F1.3°C 73% Calm Calm -- 30.25 in1024.4 mb 0.00 in0.0 mm 0.00 in0.0 mm 0.00 in0.0 mm
06:00 AM 41.4°F5.2°C 34.7°F1.5°C 77% Calm Calm -- 30.25 in1024.4 mb 0.00 in0.0 mm 0.00 in0.0 mm 0.00 in0.0 mm
05:45 AM 38.7°F3.7°C 31.1°F-0.5°C 74% Calm Calm -- 30.22 in1023.4 mb 0.00 in0.0 mm 0.00 in0.0 mm 0.00 in0.0 mm
05:30 AM 35.2°F1.8°C 26.5°F-3.1°C 70% Calm Calm -- 30.22 in1023.4 mb 0.00 in0.0 mm 0.00 in0.0 mm 0.00 in0.0 mm
05:15 AM 33.1°F0.6°C 24.0°F-4.4°C 69% Calm Calm -- 30.22 in1023.4 mb 0.00 in0.0 mm 0.00 in0.0 mm 0.00 in0.0 mm
05:00 AM 32.2°F0.1°C 21.8°F-5.7°C 65% Calm Calm -- 30.22 in1023.4 mb 0.00 in0.0 mm 0.00 in0.0 mm 0.00 in0.0 mm
04:45 AM 31.5°F-0.3°C 20.7°F-6.3°C 64% Calm Calm -- 30.22 in1023.4 mb 0.00 in0.0 mm 0.00 in0.0 mm 0.00 in0.0 mm
04:30 AM 31.1°F-0.5°C 20.0°F-6.7°C 63% Calm Calm -- 30.22 in1023.4 mb 0.00 in0.0 mm 0.00 in0.0 mm 0.00 in0.0 mm
04:15 AM 31.3°F-0.4°C 19.4°F-7.0°C 61% Calm Calm -- 30.22 in1023.4 mb 0.00 in0.0 mm 0.00 in0.0 mm 0.00 in0.0 mm
04:00 AM 31.6°F-0.2°C 19.8°F-6.8°C 61% Calm Calm -- 30.22 in1023.4 mb 0.00 in0.0 mm 0.00 in0.0 mm 0.00 in0.0 mm
03:45 AM 31.8°F-0.1°C 19.5°F-6.9°C 60% Calm Calm -- 30.22 in1023.4 mb 0.00 in0.0 mm 0.00 in0.0 mm 0.00 in0.0 mm
03:30 AM 31.8°F-0.1°C 19.5°F-6.9°C 60% Calm Calm -- 30.22 in1023.4 mb 0.00 in0.0 mm 0.00 in0.0 mm 0.00 in0.0 mm
03:15 AM 32.2°F0.1°C 19.9°F-6.7°C 60% Calm Calm -- 30.22 in1023.4 mb 0.00 in0.0 mm 0.00 in0.0 mm 0.00 in0.0 mm
03:00 AM 32.2°F0.1°C 19.9°F-6.7°C 60% Calm Calm -- 30.22 in1023.4 mb 0.00 in0.0 mm 0.00 in0.0 mm 0.00 in0.0 mm
02:45 AM 32.5°F0.3°C 20.2°F-6.6°C 60% Calm Calm -- 30.22 in1023.4 mb 0.00 in0.0 mm 0.00 in0.0 mm 0.00 in0.0 mm
02:30 AM 32.5°F0.3°C 20.6°F-6.3°C 61% Calm Calm -- 30.22 in1023.4 mb 0.00 in0.0 mm 0.00 in0.0 mm 0.00 in0.0 mm
02:15 AM 32.9°F0.5°C 20.2°F-6.6°C 59% Calm Calm -- 30.22 in1023.4 mb 0.00 in0.0 mm 0.00 in0.0 mm 0.00 in0.0 mm
02:00 AM 33.4°F0.8°C 19.9°F-6.7°C 57% Calm Calm -- 30.22 in1023.4 mb 0.00 in0.0 mm 0.00 in0.0 mm 0.00 in0.0 mm
01:45 AM 34.0°F1.1°C 19.5°F-6.9°C 55% Calm Calm -- 30.22 in1023.4 mb 0.00 in0.0 mm 0.00 in0.0 mm 0.00 in0.0 mm
01:30 AM 34.3°F1.3°C 19.9°F-6.7°C 55% Calm Calm -- 30.22 in1023.4 mb 0.00 in0.0 mm 0.00 in0.0 mm 0.00 in0.0 mm
01:15 AM 35.1°F1.7°C 20.1°F-6.6°C 54% Calm Calm -- 30.22 in1023.4 mb 0.00 in0.0 mm 0.00 in0.0 mm 0.00 in0.0 mm
01:00 AM 35.6°F2.0°C 19.7°F-6.8°C 52% Calm Calm -- 30.22 in1023.4 mb 0.00 in0.0 mm 0.00 in0.0 mm 0.00 in0.0 mm
12:45 AM 36.1°F2.3°C 20.2°F-6.6°C 52% Calm Calm -- 30.22 in1023.4 mb 0.00 in0.0 mm 0.00 in0.0 mm 0.00 in0.0 mm
12:30 AM 36.7°F2.6°C 20.7°F-6.3°C 52% Calm Calm -- 30.22 in1023.4 mb 0.00 in0.0 mm 0.00 in0.0 mm 0.00 in0.0 mm
12:15 AM 37.6°F3.1°C 19.7°F-6.8°C 48% Calm Calm -- 30.22 in1023.4 mb 0.00 in0.0 mm 0.00 in0.0 mm 0.00 in0.0 mm
12:00 AM 38.5°F3.6°C 20.0°F-6.7°C 47% Calm Calm -- 30.22 in1023.4 mb 0.00 in0.0 mm 0.00 in0.0 mm 0.00 in0.0 mm